createdAt,value
2023-03-15T00:01:14.808Z,3.60
2023-03-15T00:03:43.229Z,3.60
2023-03-15T00:06:10.448Z,3.70
2023-03-15T00:08:37.852Z,3.70
2023-03-15T00:11:05.023Z,3.70
2023-03-15T00:13:32.494Z,3.70
2023-03-15T00:16:02.892Z,3.70
2023-03-15T00:18:30.130Z,3.70
2023-03-15T00:20:57.030Z,3.80
2023-03-15T00:23:27.093Z,3.80
2023-03-15T00:25:54.822Z,3.80
2023-03-15T00:28:21.834Z,3.90
2023-03-15T00:30:48.942Z,3.90
2023-03-15T00:33:16.698Z,3.70
2023-03-15T00:35:45.674Z,3.10
2023-03-15T00:38:13.771Z,2.70
2023-03-15T00:40:42.393Z,2.60
2023-03-15T00:43:09.545Z,2.40
2023-03-15T00:45:36.942Z,2.40
2023-03-15T00:48:04.858Z,2.40
2023-03-15T00:50:31.754Z,2.40
2023-03-15T00:52:58.838Z,2.30
2023-03-15T00:55:28.603Z,2.40
2023-03-15T00:57:56.930Z,2.20
2023-03-15T01:00:25.008Z,2.30
2023-03-15T01:02:54.363Z,2.40
2023-03-15T01:05:22.248Z,2.40
2023-03-15T01:07:49.265Z,2.30
2023-03-15T01:10:17.328Z,2.20
2023-03-15T01:12:44.831Z,2.20
2023-03-15T01:15:14.040Z,2.00
2023-03-15T01:17:41.643Z,2.00
2023-03-15T01:20:10.229Z,2.00
2023-03-15T01:22:37.187Z,1.90
2023-03-15T01:25:04.394Z,1.80
2023-03-15T01:27:31.446Z,1.80
2023-03-15T01:29:58.742Z,1.70
2023-03-15T01:32:27.026Z,1.80
2023-03-15T01:34:54.064Z,1.80
2023-03-15T01:37:24.716Z,1.70
2023-03-15T01:39:52.069Z,1.70
2023-03-15T01:42:19.461Z,1.70
2023-03-15T01:44:52.450Z,1.70
2023-03-15T01:47:20.034Z,1.60
2023-03-15T01:49:51.792Z,1.60
2023-03-15T01:52:26.708Z,1.60
2023-03-15T01:55:06.879Z,1.70
2023-03-15T01:57:41.604Z,1.80
2023-03-15T02:00:13.168Z,1.80
2023-03-15T02:02:56.692Z,1.90
2023-03-15T02:05:32.503Z,2.10
2023-03-15T02:08:02.614Z,2.10
2023-03-15T02:10:40.779Z,2.10
2023-03-15T02:13:08.848Z,2.00
2023-03-15T02:15:36.005Z,2.00
2023-03-15T02:18:05.799Z,2.00
2023-03-15T02:20:54.412Z,2.10
2023-03-15T02:23:23.611Z,2.20
2023-03-15T02:26:13.010Z,2.20
2023-03-15T02:28:41.082Z,2.30
2023-03-15T02:31:08.043Z,2.30
2023-03-15T02:33:50.543Z,2.30
2023-03-15T02:36:26.441Z,2.40
2023-03-15T02:38:54.934Z,2.40
2023-03-15T02:41:37.706Z,2.50
2023-03-15T02:44:15.104Z,2.50
2023-03-15T02:46:44.419Z,2.50
2023-03-15T02:49:13.586Z,2.60
2023-03-15T02:51:40.645Z,2.60
2023-03-15T02:54:07.604Z,2.70
2023-03-15T02:56:34.763Z,2.80
2023-03-15T02:59:02.424Z,2.80
2023-03-15T03:01:31.744Z,2.90
2023-03-15T03:03:58.806Z,2.90
2023-03-15T03:06:25.931Z,2.90
2023-03-15T03:08:53.573Z,3.00
2023-03-15T03:11:21.094Z,3.00
2023-03-15T03:13:48.108Z,3.00
2023-03-15T03:16:15.131Z,3.00
2023-03-15T03:18:43.369Z,3.10
2023-03-15T03:21:10.418Z,3.00
2023-03-15T03:23:37.382Z,3.00
2023-03-15T03:26:11.951Z,3.00
2023-03-15T03:28:38.882Z,3.00
2023-03-15T03:31:06.058Z,3.10
2023-03-15T03:33:33.112Z,3.10
2023-03-15T03:36:04.477Z,3.10
2023-03-15T03:38:32.183Z,3.10
2023-03-15T03:41:01.650Z,3.10
2023-03-15T03:43:31.485Z,3.10
2023-03-15T03:45:59.099Z,3.20
2023-03-15T03:48:27.128Z,3.20
2023-03-15T03:50:54.144Z,3.20
2023-03-15T03:53:21.122Z,3.20
2023-03-15T03:55:48.466Z,3.20
2023-03-15T03:58:19.159Z,3.30
2023-03-15T04:00:54.449Z,3.30
2023-03-15T04:03:28.033Z,3.20
2023-03-15T04:06:05.781Z,3.20
2023-03-15T04:08:37.117Z,3.20
2023-03-15T04:11:04.920Z,3.20
2023-03-15T04:13:35.205Z,3.20
2023-03-15T04:16:03.928Z,3.20
2023-03-15T04:18:40.199Z,3.20
2023-03-15T04:21:11.143Z,3.20
2023-03-15T04:23:41.526Z,3.20
2023-03-15T04:26:18.048Z,3.30
2023-03-15T04:28:56.908Z,3.30
2023-03-15T04:31:43.261Z,3.30
2023-03-15T04:34:20.421Z,3.30
2023-03-15T04:37:13.582Z,3.30
2023-03-15T04:40:12.833Z,3.30
2023-03-15T04:42:56.105Z,3.20
2023-03-15T04:45:49.290Z,3.20
2023-03-15T04:48:36.284Z,3.10
2023-03-15T04:51:20.604Z,3.00
2023-03-15T04:54:00.615Z,3.00
2023-03-15T04:56:43.240Z,3.00
2023-03-15T04:59:28.797Z,3.00
2023-03-15T05:02:17.604Z,3.00
2023-03-15T05:05:14.007Z,3.10
2023-03-15T05:07:59.673Z,3.10
2023-03-15T05:10:43.797Z,3.10
2023-03-15T05:13:33.258Z,3.10
2023-03-15T05:16:14.398Z,3.10
2023-03-15T05:19:00.250Z,3.10
2023-03-15T05:21:47.439Z,3.00
2023-03-15T05:24:22.753Z,2.90
2023-03-15T05:27:06.687Z,2.80
2023-03-15T05:29:43.070Z,2.80
2023-03-15T05:32:26.787Z,2.70
2023-03-15T05:35:13.345Z,2.70
2023-03-15T05:37:58.510Z,2.70
2023-03-15T05:40:47.549Z,2.70
2023-03-15T05:43:46.943Z,2.70
2023-03-15T05:46:31.966Z,2.70
2023-03-15T05:49:02.168Z,2.70
2023-03-15T05:51:38.419Z,2.70
2023-03-15T05:54:18.527Z,2.80
2023-03-15T05:56:54.554Z,2.80
2023-03-15T05:59:30.931Z,2.90
2023-03-15T06:02:11.880Z,2.90
2023-03-15T06:04:50.887Z,2.80
2023-03-15T06:07:21.882Z,2.90
2023-03-15T06:09:48.886Z,2.90
2023-03-15T06:12:15.893Z,2.90
2023-03-15T06:14:43.275Z,2.90
2023-03-15T06:17:11.837Z,2.90
2023-03-15T06:19:42.260Z,2.90
2023-03-15T06:22:10.099Z,2.90
2023-03-15T06:24:44.093Z,2.90
2023-03-15T06:27:11.287Z,2.90
2023-03-15T06:29:38.367Z,3.00
2023-03-15T06:32:05.941Z,3.20
2023-03-15T06:34:35.226Z,3.30
2023-03-15T06:37:03.280Z,3.50
2023-03-15T06:39:30.464Z,3.60
2023-03-15T06:41:58.518Z,3.70
2023-03-15T06:44:27.975Z,3.70
2023-03-15T06:46:59.455Z,3.70
2023-03-15T06:49:27.449Z,3.80
2023-03-15T06:51:54.461Z,4.00
2023-03-15T06:54:22.636Z,4.30
2023-03-15T06:56:49.880Z,4.60
2023-03-15T06:59:17.477Z,5.30
2023-03-15T07:01:44.520Z,5.60
2023-03-15T07:04:11.507Z,5.20
2023-03-15T07:06:38.792Z,4.90
2023-03-15T07:09:06.082Z,4.80
2023-03-15T07:11:33.883Z,4.90
2023-03-15T07:14:00.774Z,4.90
2023-03-15T07:16:27.785Z,4.80
2023-03-15T07:18:56.577Z,5.10
2023-03-15T07:21:23.521Z,5.00
2023-03-15T07:23:50.534Z,5.10
2023-03-15T07:26:17.536Z,5.10
2023-03-15T07:28:44.863Z,5.40
2023-03-15T07:31:12.213Z,5.90
2023-03-15T07:33:40.156Z,7.40
2023-03-15T07:36:08.066Z,7.50
2023-03-15T07:38:36.093Z,7.20
2023-03-15T07:41:05.611Z,6.80
2023-03-15T07:43:32.959Z,6.10
2023-03-15T07:46:10.962Z,5.70
2023-03-15T07:48:37.946Z,5.60
2023-03-15T07:51:05.199Z,5.70
2023-03-15T07:53:32.077Z,7.70
2023-03-15T07:55:59.045Z,12.70
2023-03-15T07:58:26.124Z,16.70
2023-03-15T08:00:56.338Z,19.30
2023-03-15T08:03:24.685Z,20.90
2023-03-15T08:05:51.709Z,20.20
2023-03-15T08:08:19.361Z,18.40
2023-03-15T08:10:46.798Z,14.90
2023-03-15T08:13:14.112Z,11.90
2023-03-15T08:15:41.761Z,10.60
2023-03-15T08:18:08.744Z,9.60
2023-03-15T08:20:35.724Z,9.10
2023-03-15T08:23:02.732Z,8.80
2023-03-15T08:25:30.932Z,8.50
2023-03-15T08:27:58.040Z,8.20
2023-03-15T08:30:25.012Z,7.90
2023-03-15T08:32:52.682Z,7.80
2023-03-15T08:35:22.062Z,7.70
2023-03-15T08:37:52.344Z,7.90
2023-03-15T08:40:26.595Z,8.50
2023-03-15T08:42:54.625Z,9.80
2023-03-15T08:45:23.968Z,9.90
2023-03-15T08:47:55.593Z,9.70
2023-03-15T08:50:22.781Z,9.60
2023-03-15T08:52:49.760Z,9.50
2023-03-15T08:55:17.644Z,9.10
2023-03-15T08:57:44.790Z,8.70
2023-03-15T09:00:22.839Z,8.80
2023-03-15T09:02:52.141Z,9.70
2023-03-15T09:05:20.372Z,14.90
2023-03-15T09:07:48.084Z,18.80
2023-03-15T09:10:16.953Z,22.50
2023-03-15T09:12:46.054Z,23.20
2023-03-15T09:15:13.547Z,24.50
2023-03-15T09:17:41.463Z,22.60
2023-03-15T09:20:16.893Z,23.70
2023-03-15T09:22:49.309Z,27.20
2023-03-15T09:25:16.305Z,27.60
2023-03-15T09:27:43.160Z,26.80
2023-03-15T09:30:11.022Z,27.50
2023-03-15T09:32:38.094Z,22.30
2023-03-15T09:35:07.585Z,18.40
2023-03-15T09:37:34.980Z,15.20
2023-03-15T09:40:02.118Z,13.10
2023-03-15T09:42:50.816Z,11.40
2023-03-15T09:45:36.730Z,10.40
2023-03-15T09:48:18.093Z,18.90
2023-03-15T09:51:08.012Z,24.60
2023-03-15T09:53:41.816Z,28.90
2023-03-15T09:56:22.014Z,26.60
2023-03-15T09:58:52.470Z,21.30
2023-03-15T10:01:23.553Z,20.60
2023-03-15T10:03:52.401Z,25.50
2023-03-15T10:06:20.727Z,28.50
2023-03-15T10:08:47.893Z,30.60
2023-03-15T10:11:29.717Z,26.30
2023-03-15T10:14:06.276Z,20.80
2023-03-15T10:16:47.893Z,23.00
2023-03-15T10:19:41.452Z,27.30
2023-03-15T10:22:13.953Z,23.70
2023-03-15T10:24:53.043Z,21.80
2023-03-15T10:27:42.401Z,18.50
2023-03-15T10:30:24.464Z,15.90
2023-03-15T10:32:59.239Z,14.00
2023-03-15T10:35:26.624Z,12.60
2023-03-15T10:37:53.782Z,12.60
2023-03-15T10:40:41.077Z,12.50
2023-03-15T10:43:23.939Z,12.40
2023-03-15T10:46:06.045Z,12.80
2023-03-15T10:48:38.237Z,15.20
2023-03-15T10:51:21.001Z,17.20
2023-03-15T10:54:12.884Z,16.20
2023-03-15T10:56:54.264Z,14.50
2023-03-15T10:59:24.401Z,13.10
2023-03-15T11:02:14.491Z,12.30
2023-03-15T11:04:43.821Z,17.10
2023-03-15T11:07:13.524Z,21.50
2023-03-15T11:09:53.043Z,23.40
2023-03-15T11:12:41.939Z,25.30
2023-03-15T11:15:14.708Z,26.20
2023-03-15T11:17:49.246Z,26.00
2023-03-15T11:20:45.801Z,23.20
2023-03-15T11:23:25.245Z,24.40
2023-03-15T11:25:53.461Z,24.60
2023-03-15T11:28:25.857Z,24.40
2023-03-15T11:30:53.111Z,24.40
2023-03-15T11:33:50.970Z,23.10
2023-03-15T11:36:25.137Z,24.10
2023-03-15T11:38:54.075Z,23.70
2023-03-15T11:41:26.539Z,23.90
2023-03-15T11:44:38.534Z,22.80
2023-03-15T11:47:11.818Z,22.00
2023-03-15T11:49:53.646Z,22.80
2023-03-15T11:52:24.840Z,22.60
2023-03-15T11:54:55.540Z,20.00
2023-03-15T11:57:46.731Z,20.20
2023-03-15T12:00:28.913Z,18.20
2023-03-15T12:02:58.575Z,19.50
2023-03-15T12:05:49.150Z,20.60
2023-03-15T12:08:18.562Z,21.50
2023-03-15T12:10:47.747Z,21.60
2023-03-15T12:13:24.343Z,21.40
2023-03-15T12:15:52.164Z,20.50
2023-03-15T12:18:41.312Z,20.60
2023-03-15T12:21:09.983Z,20.10
2023-03-15T12:23:42.610Z,19.60
2023-03-15T12:26:35.364Z,18.30
2023-03-15T12:29:32.768Z,16.50
2023-03-15T12:32:02.729Z,17.10
2023-03-15T12:34:56.132Z,17.40
2023-03-15T12:37:38.355Z,15.90
2023-03-15T12:40:22.392Z,14.60
2023-03-15T12:42:49.334Z,14.30
2023-03-15T12:45:16.289Z,13.90
2023-03-15T12:47:47.914Z,15.40
2023-03-15T12:50:54.777Z,16.00
2023-03-15T12:53:27.626Z,15.70
2023-03-15T12:56:06.174Z,15.80
2023-03-15T12:58:41.198Z,15.60
2023-03-15T13:01:16.709Z,15.40
2023-03-15T13:03:44.408Z,15.60
2023-03-15T13:06:58.953Z,15.70
2023-03-15T13:09:41.926Z,15.60
2023-03-15T13:12:34.809Z,15.60
2023-03-15T13:15:25.783Z,14.90
2023-03-15T13:17:58.879Z,15.10
2023-03-15T13:21:06.304Z,14.80
2023-03-15T13:23:34.413Z,14.40
2023-03-15T13:26:13.316Z,13.80
2023-03-15T13:28:50.647Z,13.50
2023-03-15T13:31:23.947Z,12.60
2023-03-15T13:33:57.450Z,12.20
2023-03-15T13:36:29.292Z,12.10
2023-03-15T13:39:00.185Z,12.20
2023-03-15T13:41:29.717Z,12.10
2023-03-15T13:43:58.943Z,12.20
2023-03-15T13:46:29.440Z,12.40
2023-03-15T13:48:56.562Z,12.40
2023-03-15T13:51:30.003Z,12.20
2023-03-15T13:54:29.365Z,11.80
2023-03-15T13:57:12.547Z,11.50
2023-03-15T14:00:00.643Z,11.40
2023-03-15T14:02:48.237Z,11.50
2023-03-15T14:05:27.276Z,11.70
2023-03-15T14:08:04.066Z,11.60
2023-03-15T14:10:38.659Z,11.90
2023-03-15T14:13:24.103Z,12.20
2023-03-15T14:15:56.372Z,12.30
2023-03-15T14:18:26.160Z,12.40
2023-03-15T14:21:04.884Z,12.20
2023-03-15T14:23:32.647Z,12.10
2023-03-15T14:26:06.549Z,12.00
2023-03-15T14:28:34.245Z,11.80
2023-03-15T14:31:02.530Z,11.80
2023-03-15T14:33:34.037Z,11.70
2023-03-15T14:36:04.657Z,11.50
2023-03-15T14:38:39.745Z,11.50
2023-03-15T14:41:33.022Z,11.40
2023-03-15T14:44:02.919Z,11.20
2023-03-15T14:46:33.365Z,11.20
2023-03-15T14:49:01.021Z,11.00
2023-03-15T14:51:29.005Z,11.10
2023-03-15T14:53:58.836Z,11.30
2023-03-15T14:56:25.849Z,11.40
2023-03-15T14:58:56.211Z,11.20
2023-03-15T15:01:27.178Z,11.10
2023-03-15T15:04:01.605Z,11.00
2023-03-15T15:06:31.996Z,10.90
2023-03-15T15:09:01.482Z,10.70
2023-03-15T15:11:28.689Z,10.60
2023-03-15T15:13:56.739Z,10.70
2023-03-15T15:16:23.926Z,10.60
2023-03-15T15:18:50.903Z,10.60
2023-03-15T15:21:33.719Z,10.60
2023-03-15T15:24:03.532Z,10.60
2023-03-15T15:26:31.942Z,10.60
2023-03-15T15:29:00.720Z,10.40
2023-03-15T15:31:29.242Z,10.30
2023-03-15T15:33:57.064Z,10.40
2023-03-15T15:36:27.502Z,10.40
2023-03-15T15:38:55.660Z,10.30
2023-03-15T15:41:25.462Z,10.30
2023-03-15T15:43:53.461Z,10.30
2023-03-15T15:46:20.991Z,10.30
2023-03-15T15:48:48.140Z,10.30
2023-03-15T15:51:21.818Z,10.20
2023-03-15T15:53:49.316Z,10.20
2023-03-15T15:56:16.714Z,10.30
2023-03-15T15:58:44.877Z,10.20
2023-03-15T16:01:13.642Z,10.00
2023-03-15T16:03:41.598Z,10.00
2023-03-15T16:06:17.618Z,10.10
2023-03-15T16:08:46.054Z,10.00
2023-03-15T16:11:15.606Z,10.00
2023-03-15T16:13:45.196Z,9.90
2023-03-15T16:16:14.704Z,9.80
2023-03-15T16:18:43.013Z,9.50
2023-03-15T16:21:41.004Z,9.50
2023-03-15T16:24:30.203Z,9.40
2023-03-15T16:27:01.812Z,9.00
2023-03-15T16:29:49.551Z,9.00
2023-03-15T16:32:33.405Z,8.90
2023-03-15T16:35:15.347Z,8.80
2023-03-15T16:37:43.651Z,8.80
2023-03-15T16:40:21.331Z,8.70
2023-03-15T16:42:49.397Z,8.60
2023-03-15T16:45:17.079Z,8.50
2023-03-15T16:47:44.144Z,8.40
2023-03-15T16:50:11.625Z,8.30
2023-03-15T16:52:39.796Z,8.20
2023-03-15T16:55:07.055Z,8.10
2023-03-15T16:57:34.080Z,8.00
2023-03-15T17:00:02.660Z,7.90
2023-03-15T17:02:31.195Z,7.80
2023-03-15T17:04:58.186Z,7.70
2023-03-15T17:07:31.419Z,7.60
2023-03-15T17:10:00.512Z,7.40
2023-03-15T17:12:29.006Z,7.30
2023-03-15T17:14:59.059Z,7.20
2023-03-15T17:17:33.132Z,7.20
2023-03-15T17:20:00.592Z,7.00
2023-03-15T17:22:28.187Z,7.00
2023-03-15T17:24:55.314Z,6.90
2023-03-15T17:27:36.020Z,6.70
2023-03-15T17:30:13.784Z,6.60
2023-03-15T17:32:41.505Z,6.50
2023-03-15T17:35:09.483Z,6.40
2023-03-15T17:37:37.826Z,6.40
2023-03-15T17:40:12.446Z,6.30
2023-03-15T17:42:40.043Z,6.20
2023-03-15T17:45:19.985Z,6.10
2023-03-15T17:47:49.274Z,6.00
2023-03-15T17:50:17.225Z,5.90
2023-03-15T17:52:48.043Z,5.80
2023-03-15T17:55:17.633Z,5.70
2023-03-15T17:57:54.034Z,5.60
2023-03-15T18:00:23.154Z,5.50
2023-03-15T18:02:55.696Z,5.50
2023-03-15T18:05:27.704Z,5.40
2023-03-15T18:07:59.589Z,5.40
2023-03-15T18:10:33.770Z,5.40
2023-03-15T18:13:00.801Z,5.50
2023-03-15T18:15:27.908Z,5.30
2023-03-15T18:17:54.911Z,5.10
2023-03-15T18:20:26.204Z,4.90
2023-03-15T18:22:53.267Z,4.90
2023-03-15T18:25:24.736Z,4.90
2023-03-15T18:27:53.015Z,4.90
2023-03-15T18:30:22.668Z,5.20
2023-03-15T18:32:50.893Z,5.00
2023-03-15T18:35:26.917Z,4.90
2023-03-15T18:37:56.006Z,5.00
2023-03-15T18:40:25.035Z,5.10
2023-03-15T18:42:52.107Z,5.10
2023-03-15T18:45:24.987Z,5.00
2023-03-15T18:47:52.444Z,4.90
2023-03-15T18:50:20.094Z,4.80
2023-03-15T18:52:47.649Z,4.70
2023-03-15T18:55:17.139Z,4.60
2023-03-15T18:57:46.307Z,4.60
2023-03-15T19:00:23.895Z,4.50
2023-03-15T19:02:51.045Z,4.50
2023-03-15T19:05:18.198Z,4.40
2023-03-15T19:07:47.627Z,4.30
2023-03-15T19:10:19.076Z,4.20
2023-03-15T19:12:47.317Z,4.10
2023-03-15T19:15:17.526Z,3.90
2023-03-15T19:17:49.818Z,3.80
2023-03-15T19:20:22.031Z,3.80
2023-03-15T19:22:51.016Z,3.70
2023-03-15T19:25:18.595Z,3.70
2023-03-15T19:27:45.722Z,3.70
2023-03-15T19:30:17.960Z,3.60
2023-03-15T19:32:48.067Z,3.60
2023-03-15T19:35:15.668Z,3.40
2023-03-15T19:37:44.382Z,3.40
2023-03-15T19:40:13.412Z,3.30
2023-03-15T19:42:40.491Z,3.30
2023-03-15T19:45:09.034Z,3.30
2023-03-15T19:47:36.016Z,3.30
2023-03-15T19:50:03.259Z,3.30
2023-03-15T19:52:30.407Z,3.40
2023-03-15T19:54:57.403Z,3.30
2023-03-15T19:57:24.428Z,3.30
2023-03-15T19:59:51.394Z,3.30
2023-03-15T20:02:18.436Z,3.30
2023-03-15T20:04:45.993Z,3.20
2023-03-15T20:07:13.301Z,3.10
2023-03-15T20:09:41.477Z,3.10
2023-03-15T20:12:11.209Z,3.10
2023-03-15T20:14:38.284Z,3.00
2023-03-15T20:17:05.884Z,3.10
2023-03-15T20:19:33.077Z,3.00
2023-03-15T20:22:00.061Z,3.00
2023-03-15T20:24:27.065Z,3.10
2023-03-15T20:26:54.282Z,3.00
2023-03-15T20:29:22.560Z,2.90
2023-03-15T20:31:50.920Z,2.80
2023-03-15T20:34:18.503Z,2.80
2023-03-15T20:36:45.517Z,2.80
2023-03-15T20:39:12.523Z,2.90
2023-03-15T20:41:39.528Z,3.10
2023-03-15T20:44:06.889Z,3.10
2023-03-15T20:46:34.289Z,3.00
2023-03-15T20:49:01.456Z,3.10
2023-03-15T20:51:28.481Z,3.10
2023-03-15T20:53:55.455Z,3.20
2023-03-15T20:56:22.469Z,3.20
2023-03-15T20:58:49.432Z,3.20
2023-03-15T21:01:17.117Z,3.30
2023-03-15T21:03:45.373Z,3.40
2023-03-15T21:06:13.202Z,3.30
2023-03-15T21:08:41.624Z,3.20
2023-03-15T21:11:08.946Z,3.20
2023-03-15T21:13:36.056Z,3.20
2023-03-15T21:16:04.527Z,3.10
2023-03-15T21:18:33.062Z,3.20
2023-03-15T21:21:07.935Z,3.10
2023-03-15T21:23:35.770Z,3.00
2023-03-15T21:26:06.053Z,2.90
2023-03-15T21:28:33.541Z,2.80
2023-03-15T21:31:00.701Z,2.70
2023-03-15T21:33:29.376Z,2.70
2023-03-15T21:35:57.151Z,2.60
2023-03-15T21:38:24.339Z,2.70
2023-03-15T21:41:01.032Z,2.70
2023-03-15T21:43:32.761Z,2.80
2023-03-15T21:46:06.122Z,2.80
2023-03-15T21:48:34.063Z,2.70
2023-03-15T21:51:02.159Z,2.60
2023-03-15T21:53:30.720Z,2.50
2023-03-15T21:55:58.860Z,2.40
2023-03-15T21:58:27.130Z,2.40
2023-03-15T22:00:59.113Z,2.40
2023-03-15T22:03:26.897Z,2.40
2023-03-15T22:05:53.953Z,2.30
2023-03-15T22:08:21.259Z,2.10
2023-03-15T22:10:51.630Z,2.10
2023-03-15T22:13:18.636Z,2.00
2023-03-15T22:15:45.616Z,1.90
2023-03-15T22:18:12.771Z,2.00
2023-03-15T22:20:39.710Z,1.90
2023-03-15T22:23:06.937Z,1.90
2023-03-15T22:25:34.006Z,1.80
2023-03-15T22:28:02.077Z,1.70
2023-03-15T22:30:29.158Z,1.60
2023-03-15T22:32:56.125Z,1.60
2023-03-15T22:35:23.402Z,1.60
2023-03-15T22:37:56.279Z,1.60
2023-03-15T22:40:28.169Z,1.60
2023-03-15T22:42:57.302Z,1.50
2023-03-15T22:45:26.007Z,1.50
2023-03-15T22:47:53.251Z,1.40
2023-03-15T22:50:20.706Z,1.40
2023-03-15T22:52:48.223Z,1.40
2023-03-15T22:55:15.148Z,1.40
2023-03-15T22:57:42.034Z,1.40
2023-03-15T23:00:13.770Z,1.40
2023-03-15T23:02:44.641Z,1.50
2023-03-15T23:05:13.188Z,1.40
2023-03-15T23:07:40.209Z,1.40
2023-03-15T23:10:07.846Z,1.40
2023-03-15T23:12:36.505Z,1.50
2023-03-15T23:15:04.648Z,1.50
2023-03-15T23:17:31.960Z,1.60
2023-03-15T23:19:58.959Z,1.50
2023-03-15T23:22:26.133Z,1.40
2023-03-15T23:24:53.061Z,1.30
2023-03-15T23:27:20.064Z,1.20
2023-03-15T23:29:54.542Z,1.20
2023-03-15T23:32:27.699Z,1.30
2023-03-15T23:34:54.637Z,1.30
2023-03-15T23:37:21.557Z,1.20
2023-03-15T23:39:48.458Z,1.30
2023-03-15T23:42:15.528Z,1.30
2023-03-15T23:44:43.185Z,1.20
2023-03-15T23:47:10.248Z,1.30
2023-03-15T23:49:37.148Z,1.40
2023-03-15T23:52:05.785Z,1.50
2023-03-15T23:54:39.744Z,1.50
2023-03-15T23:57:12.761Z,1.50
2023-03-15T23:59:43.977Z,1.40
